Time;durP1;ratioP1;P1;durP2;ratioP2;P2;SDS_P1;SDS_P2;PMS_P1;PMS_P2;Temp;Humidity;BMP_temperature;BMP_pressure;BME280_temperature;BME280_humidity;BME280_pressure;Samples;Min_cycle;Max_cycle;Signal;HPM_P1;HPM_P2
2022/03/26 00:00:06;;;;;;;55.35;30.50;;;256.50;1510.40;;;;;;4997122;28;20113;-85
2022/03/26 00:02:32;;;;;;;51.50;32.20;;;256.50;1510.40;;;;;;4984087;28;20490;-84
2022/03/26 00:04:58;;;;;;;60.22;34.05;;;256.50;1510.40;;;;;;4991538;28;20117;-85
2022/03/26 00:07:24;;;;;;;71.38;41.78;;;256.50;1510.40;;;;;;4983933;28;20468;-84
2022/03/26 00:09:49;;;;;;;64.85;41.20;;;256.30;1536.00;;;;;;4984581;28;20045;-83
2022/03/26 00:12:15;;;;;;;60.78;39.88;;;256.20;1536.00;;;;;;5005359;28;20038;-84
2022/03/26 00:14:41;;;;;;;61.30;38.63;;;256.20;1561.60;;;;;;5004318;28;20053;-84
2022/03/26 00:17:07;;;;;;;62.00;37.75;;;256.20;1561.60;;;;;;5006964;28;20072;-85
2022/03/26 00:19:33;;;;;;;54.63;30.45;;;256.20;1536.00;;;;;;4996819;28;20046;-84
2022/03/26 00:21:58;;;;;;;61.05;37.15;;;256.30;1536.00;;;;;;4987575;28;20026;-86
2022/03/26 00:24:24;;;;;;;57.45;34.97;;;256.20;1536.00;;;;;;5008026;28;20022;-84
2022/03/26 00:26:52;;;;;;;54.55;33.72;;;231.30;1561.60;;;;;;5006890;28;20054;-84
2022/03/26 00:29:18;;;;;;;60.00;35.38;;;231.20;1561.60;;;;;;4994685;28;20486;-84
2022/03/26 00:31:45;;;;;;;63.83;36.70;;;231.20;1561.60;;;;;;5013396;28;20038;-85
2022/03/26 00:34:10;;;;;;;65.40;40.03;;;231.20;1587.20;;;;;;5009418;28;20103;-85
2022/03/26 00:36:36;;;;;;;78.30;49.13;;;231.10;1587.20;;;;;;4990974;28;20073;-85
2022/03/26 00:39:03;;;;;;;70.68;43.72;;;231.00;1587.20;;;;;;4994970;28;20398;-83
2022/03/26 00:41:29;;;;;;;77.25;42.97;;;231.00;1587.20;;;;;;5008529;28;20041;-85
2022/03/26 00:43:55;;;;;;;89.50;53.58;;;231.00;1612.80;;;;;;4985303;28;20376;-85
2022/03/26 00:46:21;;;;;;;86.75;53.15;;;230.80;1612.80;;;;;;5006560;28;20458;-85
2022/03/26 00:48:48;;;;;;;86.35;52.38;;;230.80;1612.80;;;;;;5009105;28;20026;-85
2022/03/26 00:51:17;;;;;;;89.60;53.35;;;230.80;1638.40;;;;;;4990744;28;20133;-85
2022/03/26 00:53:44;;;;;;;90.38;54.92;;;230.70;1638.40;;;;;;5006325;28;20026;-85
2022/03/26 00:56:11;;;;;;;96.45;58.83;;;230.70;1638.40;;;;;;5006891;28;20482;-83
2022/03/26 00:58:38;;;;;;;98.43;60.00;;;230.70;1664.00;;;;;;4990705;28;20442;-84
2022/03/26 01:01:04;;;;;;;91.82;54.45;;;230.70;1664.00;;;;;;4991682;28;20038;-86
2022/03/26 01:03:29;;;;;;;84.65;50.85;;;230.70;1664.00;;;;;;4990036;28;20084;-84
2022/03/26 01:05:55;;;;;;;79.43;47.38;;;230.80;1664.00;;;;;;4990395;28;20089;-85
2022/03/26 01:08:21;;;;;;;70.70;45.15;;;230.90;1664.00;;;;;;5001968;28;20019;-85
2022/03/26 01:10:47;;;;;;;76.70;45.47;;;231.00;1664.00;;;;;;4996658;28;20050;-84
2022/03/26 01:13:14;;;;;;;78.00;47.08;;;231.00;1664.00;;;;;;5008262;28;20037;-86
2022/03/26 01:15:40;;;;;;;78.10;48.72;;;231.00;1664.00;;;;;;4990646;28;20084;-85
2022/03/26 01:18:06;;;;;;;71.45;45.17;;;230.90;1664.00;;;;;;4987356;28;20034;-84
2022/03/26 01:20:32;;;;;;;81.32;45.53;;;230.90;1664.00;;;;;;5001765;28;20027;-85
2022/03/26 01:22:58;;;;;;;80.00;42.92;;;230.70;1664.00;;;;;;4989329;28;20034;-84
2022/03/26 01:25:24;;;;;;;74.78;44.85;;;230.90;1689.60;;;;;;5002580;28;20048;-85
2022/03/26 01:27:51;;;;;;;75.82;44.40;;;230.80;1689.60;;;;;;4988124;28;20124;-84
2022/03/26 01:30:17;;;;;;;74.43;41.47;;;230.90;1715.20;;;;;;4998600;28;20541;-84
2022/03/26 01:32:44;;;;;;;64.85;38.55;;;230.90;1689.60;;;;;;5007403;28;20026;-85
2022/03/26 01:35:11;;;;;;;66.40;41.33;;;231.00;1689.60;;;;;;4991848;28;20038;-82
2022/03/26 01:37:37;;;;;;;71.18;41.15;;;230.90;1715.20;;;;;;4992344;28;20034;-85
2022/03/26 01:40:05;;;;;;;75.20;41.42;;;230.70;1715.20;;;;;;4984009;28;20037;-83
2022/03/26 01:42:31;;;;;;;71.95;42.88;;;230.70;1740.80;;;;;;4998678;28;20034;-84
2022/03/26 01:44:57;;;;;;;83.97;45.97;;;230.80;1740.80;;;;;;4984852;28;20029;-84
2022/03/26 01:47:23;;;;;;;79.25;46.40;;;230.80;1740.80;;;;;;4997683;28;20026;-85
2022/03/26 01:49:52;;;;;;;88.75;48.88;;;230.70;1740.80;;;;;;4994235;28;20026;-84
2022/03/26 01:52:18;;;;;;;79.38;44.97;;;230.70;1740.80;;;;;;5001459;28;20030;-85
2022/03/26 01:54:44;;;;;;;60.15;36.45;;;230.40;1766.40;;;;;;4993392;28;20026;-84
2022/03/26 01:57:11;;;;;;;64.05;36.70;;;230.40;1766.40;;;;;;5000761;28;20026;-85
2022/03/26 01:59:41;;;;;;;66.45;39.15;;;205.70;1792.00;;;;;;4992437;28;20030;-84
2022/03/26 02:02:09;;;;;;;65.63;38.38;;;205.70;1817.60;;;;;;4984200;28;20037;-85
2022/03/26 02:04:35;;;;;;;61.88;35.67;;;205.70;1817.60;;;;;;4984181;28;20027;-84
2022/03/26 02:07:02;;;;;;;63.42;38.35;;;205.60;1843.20;;;;;;4996834;28;20033;-84
2022/03/26 02:09:35;;;;;;;62.28;36.15;;;205.50;1868.80;;;;;;5002047;28;20018;-83
2022/03/26 02:12:01;;;;;;;59.35;33.75;;;205.50;1868.80;;;;;;4976679;28;20518;-85
2022/03/26 02:14:27;;;;;;;51.22;34.15;;;205.50;1894.40;;;;;;4958781;28;20031;-84
2022/03/26 02:16:53;;;;;;;56.90;34.42;;;205.50;1894.40;;;;;;4979184;28;20037;-84
2022/03/26 02:19:20;;;;;;;54.38;32.88;;;205.60;1920.00;;;;;;4978131;28;20033;-83
2022/03/26 02:21:49;;;;;;;54.03;32.28;;;205.70;1920.00;;;;;;4963713;28;20042;-83
2022/03/26 02:24:15;;;;;;;58.92;30.98;;;205.70;1920.00;;;;;;4972070;28;20022;-83
2022/03/26 02:26:41;;;;;;;53.00;32.30;;;205.50;1945.60;;;;;;4979864;28;20037;-83
2022/03/26 02:29:09;;;;;;;56.65;35.75;;;205.50;1971.20;;;;;;4973153;28;20117;-84
2022/03/26 02:31:37;;;;;;;55.38;32.25;;;205.50;1996.80;;;;;;4977126;28;20034;-83
2022/03/26 02:34:05;;;;;;;52.33;29.30;;;205.60;2022.40;;;;;;4985443;28;20538;-83
2022/03/26 02:36:30;;;;;;;60.47;31.38;;;205.60;2048.00;;;;;;4986232;28;20034;-83
2022/03/26 02:38:56;;;;;;;52.10;31.08;;;205.50;2073.60;;;;;;4968404;28;20046;-85
2022/03/26 02:41:22;;;;;;;54.05;30.45;;;205.50;2099.20;;;;;;4982759;28;20080;-84
2022/03/26 02:43:48;;;;;;;50.67;30.65;;;205.50;2099.20;;;;;;4970589;28;20045;-83
2022/03/26 02:46:13;;;;;;;52.20;31.83;;;205.50;2124.80;;;;;;4967187;28;20046;-82
2022/03/26 02:48:39;;;;;;;55.70;29.92;;;205.50;2124.80;;;;;;4963613;28;20479;-83
2022/03/26 02:51:06;;;;;;;50.63;31.05;;;205.50;2150.40;;;;;;4972845;28;20041;-83
2022/03/26 02:53:32;;;;;;;47.00;29.98;;;205.50;2176.00;;;;;;4969008;28;20035;-84
2022/03/26 02:55:58;;;;;;;54.95;29.88;;;205.50;2201.60;;;;;;4980466;28;20483;-83
2022/03/26 02:58:24;;;;;;;54.47;30.77;;;205.50;2227.20;;;;;;4991285;28;20038;-84
2022/03/26 03:00:50;;;;;;;56.35;29.90;;;205.50;2252.80;;;;;;4977311;28;20551;-81
2022/03/26 03:03:16;;;;;;;55.13;32.88;;;205.50;2252.80;;;;;;4973218;28;20082;-83
2022/03/26 03:05:46;;;;;;;61.40;32.13;;;205.40;2252.80;;;;;;4965947;28;20081;-83
2022/03/26 03:08:15;;;;;;;51.88;31.80;;;205.40;2252.80;;;;;;4981008;28;20010;-83
2022/03/26 03:10:44;;;;;;;52.88;31.27;;;205.30;2252.80;;;;;;4978313;28;20045;-82
2022/03/26 03:13:10;;;;;;;45.15;30.17;;;205.30;2252.80;;;;;;4997683;28;20053;-82
2022/03/26 03:15:36;;;;;;;56.58;31.55;;;205.20;2252.80;;;;;;5001255;28;20038;-82
2022/03/26 03:18:02;;;;;;;47.83;29.85;;;205.20;2252.80;;;;;;5000905;28;20034;-81
2022/03/26 03:20:29;;;;;;;54.88;31.10;;;205.30;2252.80;;;;;;4983407;28;20045;-81
2022/03/26 03:22:57;;;;;;;59.17;31.58;;;205.30;2252.80;;;;;;5009125;28;20021;-81
2022/03/26 03:25:25;;;;;;;71.70;33.70;;;205.20;2252.80;;;;;;4981397;28;20034;-81
2022/03/26 03:27:51;;;;;;;52.67;30.58;;;205.20;2252.80;;;;;;4992808;28;20029;-81
2022/03/26 03:30:17;;;;;;;54.03;30.60;;;205.20;2252.80;;;;;;4983250;28;20042;-81
2022/03/26 03:32:44;;;;;;;58.72;31.30;;;205.10;2252.80;;;;;;4986367;28;20038;-81
2022/03/26 03:35:10;;;;;;;51.30;32.38;;;205.10;2252.80;;;;;;4989613;28;20045;-81
2022/03/26 03:37:37;;;;;;;63.65;32.85;;;205.00;2252.80;;;;;;5005928;28;20160;-81
2022/03/26 03:40:04;;;;;;;59.33;32.55;;;204.80;2252.80;;;;;;5003688;28;20026;-80
2022/03/26 03:42:30;;;;;;;52.83;30.95;;;180.00;2252.80;;;;;;4981506;28;20034;-81
2022/03/26 03:44:56;;;;;;;56.03;32.05;;;179.90;2252.80;;;;;;4992576;28;20025;-81
2022/03/26 03:47:21;;;;;;;58.10;34.38;;;180.00;2252.80;;;;;;4994516;28;20022;-80
2022/03/26 03:49:47;;;;;;;58.40;33.63;;;179.80;2252.80;;;;;;5011143;28;20026;-81
2022/03/26 03:52:14;;;;;;;57.90;32.40;;;179.90;2252.80;;;;;;4981042;28;20030;-83
2022/03/26 03:54:40;;;;;;;56.67;30.85;;;180.00;2252.80;;;;;;5001562;28;20040;-82
2022/03/26 03:57:05;;;;;;;59.50;33.85;;;180.00;2252.80;;;;;;4999260;28;20109;-83
2022/03/26 03:59:31;;;;;;;61.83;30.92;;;179.80;2252.80;;;;;;5009059;28;20032;-81
2022/03/26 04:01:57;;;;;;;56.55;33.60;;;179.70;2252.80;;;;;;5002169;28;20077;-82
2022/03/26 04:04:23;;;;;;;56.20;34.38;;;179.70;2252.80;;;;;;5005691;28;20113;-82
2022/03/26 04:06:48;;;;;;;59.70;35.95;;;179.70;2252.80;;;;;;4993186;28;20018;-81
2022/03/26 04:09:14;;;;;;;62.58;34.08;;;179.70;2252.80;;;;;;4992782;28;20030;-81
2022/03/26 04:11:40;;;;;;;61.75;35.22;;;179.70;2252.80;;;;;;5000262;28;20492;-81
2022/03/26 04:14:06;;;;;;;57.67;36.28;;;179.70;2252.80;;;;;;4989605;28;20407;-81
2022/03/26 04:16:32;;;;;;;56.33;35.30;;;179.70;2252.80;;;;;;4987692;28;20122;-82
2022/03/26 04:18:58;;;;;;;68.72;34.33;;;179.70;2252.80;;;;;;4987442;28;20057;-81
2022/03/26 04:21:25;;;;;;;69.57;36.30;;;179.60;2252.80;;;;;;5006556;28;20034;-84
2022/03/26 04:23:51;;;;;;;59.22;35.75;;;179.30;2252.80;;;;;;5008477;28;20018;-82
2022/03/26 04:26:17;;;;;;;58.70;33.13;;;179.30;2252.80;;;;;;4993263;28;20403;-82
2022/03/26 04:28:43;;;;;;;73.35;39.13;;;179.40;2252.80;;;;;;4994314;28;20034;-82
2022/03/26 04:31:09;;;;;;;69.35;39.15;;;179.20;2252.80;;;;;;5008365;28;20057;-81
2022/03/26 04:33:35;;;;;;;73.03;39.25;;;179.20;2252.80;;;;;;5000649;28;20060;-81
2022/03/26 04:36:01;;;;;;;75.95;41.13;;;179.30;2252.80;;;;;;4992694;28;20034;-81
2022/03/26 04:38:26;;;;;;;69.93;39.92;;;179.30;2252.80;;;;;;5002994;28;20386;-81
2022/03/26 04:40:54;;;;;;;70.15;38.53;;;154.50;2252.80;;;;;;4998500;28;20034;-81
2022/03/26 04:43:21;;;;;;;66.00;38.05;;;154.40;2252.80;;;;;;5002507;28;20027;-81
2022/03/26 04:45:46;;;;;;;68.00;38.40;;;154.50;2252.80;;;;;;4995986;28;20043;-82
2022/03/26 04:48:13;;;;;;;74.50;41.35;;;179.20;2252.80;;;;;;4990742;28;20102;-83
2022/03/26 04:50:39;;;;;;;65.82;39.03;;;154.30;2252.80;;;;;;4983139;28;20027;-81
2022/03/26 04:53:05;;;;;;;70.38;40.45;;;154.50;2252.80;;;;;;5002497;28;20498;-84
2022/03/26 04:55:31;;;;;;;71.55;39.90;;;154.30;2252.80;;;;;;4999006;28;20026;-82
2022/03/26 04:57:57;;;;;;;62.83;41.08;;;179.20;2252.80;;;;;;5001538;28;20027;-83
2022/03/26 05:00:22;;;;;;;73.75;41.67;;;179.20;2252.80;;;;;;4993979;28;20030;-83
2022/03/26 05:02:49;;;;;;;75.32;40.38;;;154.40;2252.80;;;;;;4983008;28;20436;-80
2022/03/26 05:05:15;;;;;;;77.97;39.65;;;179.20;2252.80;;;;;;4989078;28;20027;-81
2022/03/26 05:07:48;;;;;;;68.65;39.97;;;179.40;2252.80;;;;;;5008840;28;20031;-80
2022/03/26 05:10:22;;;;;;;73.13;41.35;;;179.50;2252.80;;;;;;4998956;28;20045;-81
2022/03/26 05:12:49;;;;;;;71.65;38.40;;;179.50;2252.80;;;;;;5005531;28;20026;-81
2022/03/26 05:15:17;;;;;;;73.25;39.88;;;179.60;2252.80;;;;;;5008702;28;20026;-81
2022/03/26 05:17:43;;;;;;;72.03;38.83;;;179.70;2252.80;;;;;;5008753;28;20117;-81
2022/03/26 05:20:11;;;;;;;73.78;42.80;;;179.70;2252.80;;;;;;4991893;28;20161;-81
2022/03/26 05:22:41;;;;;;;73.63;42.88;;;179.70;2252.80;;;;;;4994184;28;20041;-81
2022/03/26 05:25:08;;;;;;;68.65;41.13;;;179.80;2252.80;;;;;;4992883;28;20506;-81
2022/03/26 05:27:35;;;;;;;82.43;42.15;;;179.80;2252.80;;;;;;5008136;28;20033;-82
2022/03/26 05:30:02;;;;;;;79.80;40.67;;;179.90;2252.80;;;;;;5003944;28;20490;-81
2022/03/26 05:32:28;;;;;;;71.72;38.03;;;180.00;2252.80;;;;;;5012211;28;20035;-83
2022/03/26 05:34:54;;;;;;;77.57;40.88;;;180.10;2252.80;;;;;;4981556;28;20134;-84
2022/03/26 05:37:19;;;;;;;78.03;41.38;;;204.90;2252.80;;;;;;4993592;28;20097;-85
2022/03/26 05:39:46;;;;;;;63.20;37.40;;;205.00;2252.80;;;;;;4995389;28;20088;-84
2022/03/26 05:42:12;;;;;;;70.03;38.80;;;205.10;2252.80;;;;;;5000432;28;20062;-84
2022/03/26 05:44:38;;;;;;;71.43;39.70;;;205.20;2252.80;;;;;;4996121;28;20034;-84
2022/03/26 05:47:04;;;;;;;78.38;43.83;;;205.30;2252.80;;;;;;4998958;28;20113;-86
2022/03/26 05:49:29;;;;;;;85.88;42.92;;;205.40;2252.80;;;;;;4999606;28;20022;-84
2022/03/26 05:51:55;;;;;;;71.95;40.42;;;205.60;2252.80;;;;;;4991974;28;20026;-84
2022/03/26 05:54:21;;;;;;;80.82;46.30;;;205.60;2252.80;;;;;;5015696;28;20033;-85
2022/03/26 05:56:53;;;;;;;72.60;41.55;;;205.70;2252.80;;;;;;5011865;28;20038;-86
2022/03/26 05:59:21;;;;;;;84.53;48.28;;;230.50;2252.80;;;;;;4985556;28;20505;-87
2022/03/26 06:01:48;;;;;;;108.30;60.65;;;230.60;2252.80;;;;;;4995321;28;20547;-86
2022/03/26 06:04:14;;;;;;;92.72;57.83;;;230.70;2252.80;;;;;;5009079;28;20026;-88
2022/03/26 06:06:41;;;;;;;98.82;54.72;;;230.80;2252.80;;;;;;5010699;28;20026;-88
2022/03/26 06:09:07;;;;;;;90.63;55.03;;;231.00;2252.80;;;;;;4985982;28;20378;-89
2022/03/26 06:11:33;;;;;;;79.53;48.35;;;231.10;2252.80;;;;;;5004580;28;20042;-88
2022/03/26 06:14:00;;;;;;;84.72;48.65;;;231.30;2252.80;;;;;;4983808;28;20510;-88
2022/03/26 06:16:26;;;;;;;86.78;48.75;;;256.00;2252.80;;;;;;4990126;28;20483;-88
2022/03/26 06:18:52;;;;;;;73.60;39.90;;;256.20;2252.80;;;;;;4988297;28;20032;-88
2022/03/26 06:21:18;;;;;;;70.72;42.72;;;256.30;2252.80;;;;;;5003896;28;20503;-87
2022/03/26 06:23:44;;;;;;;60.53;35.42;;;256.50;2252.80;;;;;;4981268;28;20068;-87
2022/03/26 06:26:10;;;;;;;72.40;40.22;;;256.60;2227.20;;;;;;5006063;28;20368;-87
2022/03/26 06:28:37;;;;;;;79.10;47.35;;;256.90;2227.20;;;;;;5004858;28;20049;-86
2022/03/26 06:31:03;;;;;;;85.63;51.00;;;281.60;2278.40;;;;;;4991763;28;20030;-86
2022/03/26 06:33:28;;;;;;;85.75;48.15;;;281.80;2252.80;;;;;;4985502;28;20030;-88
2022/03/26 06:35:54;;;;;;;86.00;45.65;;;281.80;2278.40;;;;;;5003356;28;20022;-88
2022/03/26 06:38:20;;;;;;;90.97;46.72;;;282.10;2227.20;;;;;;5000388;28;20073;-89
2022/03/26 06:40:46;;;;;;;80.78;44.90;;;282.30;2150.40;;;;;;4988487;28;20045;-89
2022/03/26 06:43:12;;;;;;;71.22;44.25;;;307.20;2099.20;;;;;;5006863;28;20038;-88
2022/03/26 06:45:38;;;;;;;73.20;41.85;;;307.40;2022.40;;;;;;4986880;28;20087;-88
2022/03/26 06:48:04;;;;;;;69.18;41.58;;;307.70;1971.20;;;;;;4989794;28;20125;-89
2022/03/26 06:50:30;;;;;;;67.85;40.60;;;307.90;1945.60;;;;;;4988666;28;20188;-88
2022/03/26 06:52:56;;;;;;;60.53;35.75;;;308.10;1894.40;;;;;;4984272;28;20494;-87
2022/03/26 06:55:22;;;;;;;68.57;36.83;;;332.90;1894.40;;;;;;4986116;28;20112;-86
2022/03/26 06:57:51;;;;;;;58.50;34.30;;;333.10;1894.40;;;;;;5001423;28;20036;-88
2022/03/26 07:00:18;;;;;;;56.53;36.33;;;333.30;1868.80;;;;;;5009895;28;20387;-85
2022/03/26 07:02:44;;;;;;;54.38;34.20;;;333.50;1843.20;;;;;;5012650;28;20030;-85
2022/03/26 07:05:11;;;;;;;67.25;37.83;;;333.60;1868.80;;;;;;5012508;28;20093;-86
2022/03/26 07:07:38;;;;;;;58.45;38.55;;;358.40;1868.80;;;;;;5009335;28;20072;-86
2022/03/26 07:10:05;;;;;;;53.70;34.55;;;358.60;1843.20;;;;;;5005516;28;20038;-86
2022/03/26 07:12:31;;;;;;;57.08;33.80;;;358.90;1817.60;;;;;;4995709;28;20050;-86
2022/03/26 07:14:56;;;;;;;63.13;39.55;;;358.50;1792.00;;;;;;4993428;28;20077;-83
2022/03/26 07:17:23;;;;;;;57.13;36.75;;;358.50;1843.20;;;;;;5002364;28;20100;-86
2022/03/26 07:19:51;;;;;;;55.30;35.30;;;358.80;1843.20;;;;;;4985070;28;20030;-85
2022/03/26 07:22:17;;;;;;;59.75;33.05;;;359.10;1817.60;;;;;;4991187;28;20375;-86
2022/03/26 07:24:43;;;;;;;48.22;32.35;;;384.00;1740.80;;;;;;4978465;28;20061;-80
2022/03/26 07:27:08;;;;;;;54.00;32.67;;;384.00;1740.80;;;;;;5011042;28;20056;-86
2022/03/26 07:29:35;;;;;;;50.65;32.42;;;384.00;1715.20;;;;;;4978630;28;20089;-85
2022/03/26 07:32:01;;;;;;;43.42;28.00;;;384.30;1715.20;;;;;;5004270;28;20030;-86
2022/03/26 07:34:27;;;;;;;53.78;35.03;;;384.40;1664.00;;;;;;5000166;28;20483;-85
2022/03/26 07:36:53;;;;;;;54.50;34.55;;;384.60;1664.00;;;;;;4999529;28;20026;-85
2022/03/26 07:39:19;;;;;;;57.20;37.88;;;409.60;1664.00;;;;;;4987270;28;20088;-85
2022/03/26 07:41:45;;;;;;;43.38;32.60;;;409.90;1638.40;;;;;;5002700;28;20502;-84
2022/03/26 07:44:11;;;;;;;58.28;32.53;;;410.40;1587.20;;;;;;4986500;28;20030;-85
2022/03/26 07:46:37;;;;;;;55.15;32.85;;;410.30;1561.60;;;;;;4983483;28;20108;-82
2022/03/26 07:49:03;;;;;;;49.03;31.13;;;410.30;1561.60;;;;;;4999480;28;20022;-84
2022/03/26 07:51:29;;;;;;;48.20;32.55;;;435.20;1536.00;;;;;;4983743;28;20034;-84
2022/03/26 07:53:54;;;;;;;45.28;31.65;;;435.70;1484.80;;;;;;4986394;28;20376;-84
2022/03/26 07:56:21;;;;;;;49.75;30.05;;;436.00;1459.20;;;;;;4986496;28;20057;-84
2022/03/26 07:58:49;;;;;;;49.47;29.75;;;460.80;1459.20;;;;;;5003222;28;20041;-84
2022/03/26 08:01:15;;;;;;;46.25;25.27;;;461.40;1408.00;;;;;;4993985;28;20030;-83
2022/03/26 08:03:40;;;;;;;39.97;28.48;;;461.60;1382.40;;;;;;5008839;28;20590;-83
2022/03/26 08:06:06;;;;;;;40.67;25.38;;;461.60;1382.40;;;;;;5007844;28;20493;-84
2022/03/26 08:08:32;;;;;;;33.53;24.50;;;461.70;1356.80;;;;;;5007395;28;20034;-84
2022/03/26 08:10:58;;;;;;;33.47;23.23;;;486.60;1331.20;;;;;;4981165;28;20050;-79
2022/03/26 08:13:24;;;;;;;35.60;23.42;;;486.60;1331.20;;;;;;4987240;28;20031;-80
2022/03/26 08:15:49;;;;;;;42.22;25.85;;;487.00;1305.60;;;;;;4991297;28;20042;-82
2022/03/26 08:18:16;;;;;;;42.40;27.80;;;487.30;1280.00;;;;;;4990813;28;20041;-80
2022/03/26 08:20:43;;;;;;;40.63;27.00;;;512.10;1280.00;;;;;;5004370;28;20022;-81
2022/03/26 08:23:09;;;;;;;34.92;25.00;;;487.30;1280.00;;;;;;4993773;28;20034;-81
2022/03/26 08:28:18;;;;;;;35.97;23.50;;;512.20;1280.00;;;;;;5004013;28;20049;-82
2022/03/26 08:30:44;;;;;;;33.10;23.00;;;512.20;1254.40;;;;;;4999973;28;20022;-83
2022/03/26 08:33:10;;;;;;;33.53;23.55;;;512.80;1228.80;;;;;;4986383;28;20069;-82
2022/03/26 08:35:38;;;;;;;43.17;27.85;;;512.70;1228.80;;;;;;4991054;28;20125;-85
2022/03/26 08:38:04;;;;;;;39.45;24.02;;;538.10;1254.40;;;;;;4991221;28;20137;-81
2022/03/26 08:40:30;;;;;;;28.25;20.48;;;538.10;1228.80;;;;;;5000135;28;20042;-81
2022/03/26 08:42:58;;;;;;;25.88;18.17;;;538.10;1203.20;;;;;;5000697;28;20462;-81
2022/03/26 08:45:26;;;;;;;26.77;19.30;;;537.80;1228.80;;;;;;4981900;28;20065;-81
2022/03/26 08:47:52;;;;;;;29.15;19.67;;;537.70;1228.80;;;;;;5003149;28;20029;-81
2022/03/26 08:50:17;;;;;;;25.38;17.48;;;537.60;1228.80;;;;;;4987956;28;20042;-81
2022/03/26 08:52:43;;;;;;;28.15;15.43;;;537.60;1228.80;;;;;;5003854;28;20471;-80
2022/03/26 08:55:09;;;;;;;25.75;16.45;;;537.80;1203.20;;;;;;4991555;28;20034;-82
2022/03/26 08:57:35;;;;;;;22.90;15.23;;;538.10;1203.20;;;;;;5003669;28;20026;-82
2022/03/26 09:00:01;;;;;;;32.75;18.85;;;563.50;1203.20;;;;;;4989087;28;20030;-81
2022/03/26 09:02:26;;;;;;;32.97;17.70;;;563.20;1203.20;;;;;;5003136;28;20029;-82
2022/03/26 09:04:52;;;;;;;30.02;15.55;;;588.80;1177.60;;;;;;5010552;28;20032;-81
2022/03/26 09:07:18;;;;;;;25.98;13.93;;;589.10;1152.00;;;;;;4993491;28;20038;-81
2022/03/26 09:09:44;;;;;;;27.85;16.17;;;564.10;1152.00;;;;;;4987678;28;20042;-81
2022/03/26 09:12:10;;;;;;;20.73;14.50;;;588.90;1152.00;;;;;;4994328;28;20046;-85
2022/03/26 09:14:35;;;;;;;19.58;13.55;;;589.70;1100.80;;;;;;5004897;28;20033;-80
2022/03/26 09:17:01;;;;;;;20.67;13.95;;;615.00;1075.20;;;;;;4995143;28;20041;-83
2022/03/26 09:19:27;;;;;;;25.80;13.60;;;615.00;1075.20;;;;;;5005173;28;20495;-81
2022/03/26 09:21:53;;;;;;;22.33;12.75;;;615.00;1075.20;;;;;;4982638;28;20034;-81
2022/03/26 09:24:18;;;;;;;19.33;12.80;;;615.10;1049.60;;;;;;4996813;28;20052;-81
2022/03/26 09:26:44;;;;;;;22.05;12.63;;;640.10;1049.60;;;;;;4996259;28;20375;-82
2022/03/26 09:29:10;;;;;;;20.90;11.30;;;615.20;1049.60;;;;;;4993586;28;20069;-82
2022/03/26 09:31:36;;;;;;;19.35;11.00;;;640.20;1024.00;;;;;;4988232;28;20475;-82
2022/03/26 09:34:01;;;;;;;18.02;10.85;;;640.90;998.40;;;;;;4979830;28;20030;-82
2022/03/26 09:36:27;;;;;;;14.57;10.25;;;665.70;1024.00;;;;;;4993396;28;20034;-81
2022/03/26 09:38:53;;;;;;;17.77;9.65;;;665.60;1024.00;;;;;;5000135;28;20111;-82
2022/03/26 09:41:22;;;;;;;15.63;9.55;;;665.90;998.40;;;;;;5013063;28;20494;-81
2022/03/26 09:43:49;;;;;;;16.33;10.05;;;665.60;1024.00;;;;;;4987827;28;20137;-82
2022/03/26 09:46:15;;;;;;;21.98;11.85;;;665.90;998.40;;;;;;4979930;28;20026;-82
2022/03/26 09:48:42;;;;;;;14.48;8.27;;;666.00;998.40;;;;;;4991545;28;20498;-82
2022/03/26 09:51:09;;;;;;;13.93;9.20;;;665.90;998.40;;;;;;4978357;28;20030;-82
2022/03/26 09:53:35;;;;;;;15.90;10.00;;;666.30;972.80;;;;;;4995911;28;20055;-81
2022/03/26 09:56:01;;;;;;;13.55;9.52;;;666.20;972.80;;;;;;5002076;28;20029;-81
2022/03/26 09:58:26;;;;;;;16.52;10.48;;;666.30;947.20;;;;;;5005899;28;20022;-81
2022/03/26 10:00:55;;;;;;;16.52;9.93;;;691.80;921.60;;;;;;5007257;28;20505;-82
2022/03/26 10:03:21;;;;;;;14.40;9.93;;;692.00;921.60;;;;;;4993425;28;20068;-82
2022/03/26 10:05:46;;;;;;;17.85;10.27;;;691.80;921.60;;;;;;4998289;28;20050;-82
2022/03/26 10:08:23;;;;;;;15.00;10.35;;;716.80;921.60;;;;;;5007456;28;20022;-82
2022/03/26 10:10:52;;;;;;;18.38;10.70;;;692.00;921.60;;;;;;4985446;28;20514;-82
2022/03/26 10:13:36;;;;;;;16.85;11.10;;;716.90;921.60;;;;;;5002567;28;20507;-83
2022/03/26 10:16:04;;;;;;;16.58;12.05;;;692.00;870.40;;;;;;4997331;28;20030;-82
2022/03/26 10:18:43;;;;;;;17.70;11.20;;;691.80;921.60;;;;;;4994317;28;20042;-80
2022/03/26 10:21:11;;;;;;;18.35;9.75;;;692.10;896.00;;;;;;4989018;28;20026;-81
2022/03/26 10:23:45;;;;;;;22.67;11.32;;;692.00;870.40;;;;;;4984699;28;20110;-82
2022/03/26 10:26:17;;;;;;;23.33;12.98;;;716.90;896.00;;;;;;5008987;28;20026;-84
2022/03/26 10:28:48;;;;;;;13.73;8.82;;;692.00;870.40;;;;;;4995863;28;20018;-84
2022/03/26 10:34:16;;;;;;;14.52;9.52;;;692.10;844.80;;;;;;5004825;28;20076;-84
2022/03/26 10:37:01;;;;;;;13.80;9.43;;;717.20;819.20;;;;;;4994761;28;20549;-82
2022/03/26 10:39:30;;;;;;;15.25;8.75;;;716.80;844.80;;;;;;4992046;28;20410;-82
2022/03/26 10:41:57;;;;;;;20.50;8.77;;;717.30;844.80;;;;;;5001711;28;20120;-82
2022/03/26 10:44:28;;;;;;;11.13;7.90;;;717.50;819.20;;;;;;4990399;28;20033;-86
2022/03/26 10:47:00;;;;;;;15.80;9.65;;;717.10;844.80;;;;;;4994349;28;20037;-86
2022/03/26 10:49:36;;;;;;;20.50;10.98;;;717.20;819.20;;;;;;4984808;28;20072;-87
2022/03/26 10:52:16;;;;;;;21.90;19.33;;;717.50;819.20;;;;;;4993387;28;20049;-80
2022/03/26 10:54:42;;;;;;;17.95;16.15;;;717.70;819.20;;;;;;4998335;28;20132;-81
2022/03/26 10:57:08;;;;;;;12.63;10.68;;;742.40;844.80;;;;;;4986435;28;20057;-81
2022/03/26 10:59:34;;;;;;;17.02;10.00;;;742.40;819.20;;;;;;5003742;28;20062;-81
2022/03/26 11:02:01;;;;;;;15.35;10.27;;;717.60;819.20;;;;;;4985755;28;20117;-80
2022/03/26 11:04:28;;;;;;;16.20;9.48;;;743.00;793.60;;;;;;4996686;28;20762;-81
2022/03/26 11:06:55;;;;;;;12.38;9.00;;;768.00;819.20;;;;;;4997166;28;20022;-79
2022/03/26 11:09:21;;;;;;;14.93;8.73;;;742.70;793.60;;;;;;5007951;28;20097;-81
2022/03/26 11:11:49;;;;;;;11.27;9.15;;;742.70;793.60;;;;;;5000509;28;20056;-81
2022/03/26 11:14:23;;;;;;;12.65;8.57;;;742.80;793.60;;;;;;4989242;28;20036;-82
2022/03/26 11:17:14;;;;;;;13.85;8.52;;;742.70;793.60;;;;;;5006094;28;20038;-81
2022/03/26 11:20:04;;;;;;;16.02;9.27;;;717.50;793.60;;;;;;5001880;28;20022;-81
2022/03/26 11:23:05;;;;;;;13.18;9.07;;;717.70;768.00;;;;;;4979270;28;20030;-81
2022/03/26 11:25:49;;;;;;;14.50;10.27;;;717.50;768.00;;;;;;4990877;28;20037;-82
2022/03/26 11:28:41;;;;;;;11.88;8.90;;;742.60;819.20;;;;;;4998289;28;20529;-82
2022/03/26 11:31:23;;;;;;;12.43;8.00;;;768.30;768.00;;;;;;4978090;28;20041;-82
2022/03/26 11:33:49;;;;;;;11.98;7.70;;;768.60;768.00;;;;;;4980634;28;20041;-82
2022/03/26 11:36:18;;;;;;;14.35;8.20;;;768.50;768.00;;;;;;4985601;28;20072;-82
2022/03/26 11:39:07;;;;;;;15.05;9.40;;;768.10;768.00;;;;;;4978818;28;20057;-82
2022/03/26 11:41:33;;;;;;;12.32;8.43;;;742.70;819.20;;;;;;4981892;28;20403;-82
2022/03/26 11:44:01;;;;;;;12.13;7.15;;;743.30;793.60;;;;;;4981631;28;20040;-81
2022/03/26 11:50:41;;;;;;;10.18;7.72;;;768.60;768.00;;;;;;5003493;28;20041;-80
2022/03/26 11:52:33;;;;;;;12.43;8.50;;;768.50;742.40;;;;;;5006729;28;20034;-80
2022/03/26 11:55:11;;;;;;;12.45;7.90;;;742.70;793.60;;;;;;4987509;28;20119;-80
2022/03/26 11:57:37;;;;;;;13.40;8.73;;;716.90;793.60;;;;;;4998469;28;20376;-81
2022/03/26 12:00:14;;;;;;;12.70;7.07;;;742.40;819.20;;;;;;4981998;28;20088;-81
2022/03/26 12:03:00;;;;;;;11.57;6.72;;;743.10;768.00;;;;;;4982638;28;20030;-82
2022/03/26 12:08:32;;;;;;;10.50;7.40;;;768.50;768.00;;;;;;5003855;28;20119;-81
2022/03/26 12:10:58;;;;;;;9.02;7.13;;;743.10;793.60;;;;;;4996556;28;20053;-80
2022/03/26 12:13:24;;;;;;;9.07;7.18;;;743.20;793.60;;;;;;4984393;28;20034;-80